Time;durP1;ratioP1;P1;durP2;ratioP2;P2;SDS_P1;SDS_P2;PMS_P1;PMS_P2;Temp;Humidity;BMP_temperature;BMP_pressure;BME280_temperature;BME280_humidity;BME280_pressure;Samples;Min_cycle;Max_cycle;Signal;HPM_P1;HPM_P2
2022/03/11 00:02:03;;;;;;;14.50;6.15;;;3.70;84.00;;;;;;5048990;28;20068;-47
2022/03/11 00:04:29;;;;;;;10.43;6.43;;;3.60;84.30;;;;;;5048486;28;20084;-47
2022/03/11 00:07:14;;;;;;;14.68;6.45;;;3.40;84.80;;;;;;5048767;28;20052;-48
2022/03/11 00:09:40;;;;;;;12.25;6.50;;;3.40;85.20;;;;;;5048549;28;20066;-47
2022/03/11 00:12:07;;;;;;;11.68;6.25;;;3.20;85.50;;;;;;5047064;28;20420;-46
2022/03/11 00:14:34;;;;;;;10.75;5.75;;;3.30;86.00;;;;;;5048784;28;20057;-47
2022/03/11 00:17:00;;;;;;;14.23;6.47;;;3.20;86.30;;;;;;5048508;28;20612;-46
2022/03/11 00:19:25;;;;;;;10.85;6.38;;;3.10;86.60;;;;;;5048385;28;20128;-49
2022/03/11 00:21:51;;;;;;;10.65;6.28;;;3.10;86.80;;;;;;5048350;28;20080;-48
2022/03/11 00:24:17;;;;;;;14.27;7.28;;;3.10;87.10;;;;;;5048704;28;20067;-46
2022/03/11 00:26:42;;;;;;;11.98;6.80;;;3.00;87.40;;;;;;5048119;28;20045;-49
2022/03/11 00:29:08;;;;;;;12.75;5.28;;;3.10;87.70;;;;;;5048667;28;20053;-47
2022/03/11 00:31:34;;;;;;;11.35;6.30;;;3.20;87.60;;;;;;5048403;28;20145;-47
2022/03/11 00:33:59;;;;;;;14.38;6.45;;;3.10;88.10;;;;;;5049201;28;20391;-49
2022/03/11 00:36:25;;;;;;;10.57;5.55;;;3.10;88.20;;;;;;5049087;28;20041;-49
2022/03/11 00:38:51;;;;;;;9.85;6.00;;;3.20;88.60;;;;;;5049199;28;20064;-50
2022/03/11 00:41:17;;;;;;;10.23;6.10;;;3.00;88.50;;;;;;5048282;28;20100;-50
2022/03/11 00:43:43;;;;;;;11.90;7.03;;;3.20;89.40;;;;;;5048314;28;20076;-48
2022/03/11 00:46:09;;;;;;;11.77;6.32;;;3.10;89.40;;;;;;5049444;28;20059;-49
2022/03/11 00:48:34;;;;;;;10.52;6.32;;;3.30;89.30;;;;;;5049211;28;20406;-48
2022/03/11 00:51:00;;;;;;;13.43;7.25;;;3.20;90.10;;;;;;5049067;28;20052;-46
2022/03/11 00:53:27;;;;;;;11.55;6.50;;;3.20;90.00;;;;;;5048648;28;20264;-48
2022/03/11 00:55:54;;;;;;;11.50;6.78;;;3.30;90.00;;;;;;5049246;28;20064;-49
2022/03/11 00:58:20;;;;;;;14.52;7.25;;;3.30;90.00;;;;;;5049288;28;20045;-50
2022/03/11 01:00:46;;;;;;;10.18;6.47;;;3.20;90.10;;;;;;5048998;28;20043;-51
2022/03/11 01:03:11;;;;;;;12.15;7.00;;;3.30;90.10;;;;;;5049185;28;20029;-46
2022/03/11 01:05:37;;;;;;;12.85;6.68;;;3.30;90.20;;;;;;5048723;28;20463;-46
2022/03/11 01:08:03;;;;;;;15.82;6.60;;;3.30;90.40;;;;;;5048984;28;20081;-46
2022/03/11 01:10:29;;;;;;;15.38;7.65;;;3.40;90.60;;;;;;5048924;28;20051;-47
2022/03/11 01:12:55;;;;;;;10.90;7.18;;;3.10;90.50;;;;;;5049221;28;20763;-49
2022/03/11 01:15:20;;;;;;;13.55;7.63;;;3.30;90.70;;;;;;5049142;28;20076;-46
2022/03/11 01:17:46;;;;;;;11.23;6.15;;;3.30;90.90;;;;;;5048511;28;20044;-46
2022/03/11 01:20:12;;;;;;;11.80;7.75;;;3.00;90.90;;;;;;5048988;28;20041;-46
2022/03/11 01:22:38;;;;;;;16.02;7.75;;;3.00;91.10;;;;;;5048760;28;20471;-47
2022/03/11 01:25:05;;;;;;;15.77;7.60;;;2.90;91.10;;;;;;5052304;28;20448;-46
2022/03/11 01:27:30;;;;;;;15.02;7.93;;;3.10;91.40;;;;;;5052519;28;20045;-47
2022/03/11 01:29:56;;;;;;;14.63;8.35;;;2.90;91.50;;;;;;5052692;28;20035;-47
2022/03/11 01:32:22;;;;;;;13.93;7.75;;;3.00;91.70;;;;;;5052816;28;20732;-47
2022/03/11 01:34:47;;;;;;;16.85;8.60;;;3.00;91.70;;;;;;5051785;28;20044;-46
2022/03/11 01:37:13;;;;;;;14.65;8.20;;;3.00;91.80;;;;;;5052849;28;20067;-49
2022/03/11 01:39:39;;;;;;;13.25;8.57;;;3.00;91.90;;;;;;5052509;28;20120;-50
2022/03/11 01:42:06;;;;;;;15.85;9.43;;;2.90;92.10;;;;;;5052272;28;20053;-49
2022/03/11 01:44:31;;;;;;;17.25;8.77;;;3.00;92.20;;;;;;5052570;28;20428;-47
2022/03/11 01:46:57;;;;;;;16.17;8.13;;;2.90;92.40;;;;;;5051274;28;20132;-47
2022/03/11 01:49:23;;;;;;;18.42;10.43;;;2.80;92.30;;;;;;5052132;28;20044;-48
2022/03/11 01:51:49;;;;;;;17.30;8.55;;;2.80;92.80;;;;;;5052189;28;20049;-49
2022/03/11 01:54:15;;;;;;;21.45;9.15;;;2.80;92.90;;;;;;5052541;28;20049;-48
2022/03/11 01:56:41;;;;;;;16.65;9.15;;;2.80;92.80;;;;;;5052141;28;20364;-47
2022/03/11 01:59:10;;;;;;;23.33;9.50;;;2.80;93.30;;;;;;5051948;28;20091;-47
2022/03/11 02:01:35;;;;;;;18.52;9.75;;;2.70;93.00;;;;;;5051226;28;20106;-48
2022/03/11 02:04:01;;;;;;;21.40;11.00;;;2.80;93.00;;;;;;5051085;28;20049;-47
2022/03/11 02:06:28;;;;;;;17.80;9.98;;;2.90;93.10;;;;;;5051295;28;20029;-46
2022/03/11 02:08:55;;;;;;;19.75;10.80;;;2.70;93.30;;;;;;5050992;28;20037;-47
2022/03/11 02:11:21;;;;;;;17.60;9.75;;;3.70;93.60;;;;;;5051160;28;20123;-46
2022/03/11 02:13:52;;;;;;;20.58;11.48;;;2.80;93.40;;;;;;5051203;28;20049;-49
2022/03/11 02:16:21;;;;;;;14.35;8.65;;;3.60;93.90;;;;;;5050929;28;20044;-45
2022/03/11 02:18:47;;;;;;;22.67;11.55;;;2.70;93.70;;;;;;5050995;28;20084;-51
2022/03/11 02:21:14;;;;;;;18.90;10.43;;;2.70;93.70;;;;;;5051240;28;20556;-47
2022/03/11 02:23:51;;;;;;;19.80;11.35;;;2.70;93.80;;;;;;5051525;28;20041;-47
2022/03/11 02:26:19;;;;;;;20.05;11.05;;;2.70;94.10;;;;;;5051413;28;20365;-47
2022/03/11 02:28:46;;;;;;;20.45;11.10;;;2.60;94.10;;;;;;5051610;28;20043;-47
2022/03/11 02:31:13;;;;;;;19.48;11.18;;;3.40;94.30;;;;;;5051712;28;20049;-46
2022/03/11 02:33:39;;;;;;;18.77;11.68;;;2.70;94.30;;;;;;5051024;28;20037;-47
2022/03/11 02:36:05;;;;;;;19.83;12.82;;;2.60;94.50;;;;;;5050234;28;20116;-46
2022/03/11 02:38:31;;;;;;;21.75;12.50;;;2.70;94.50;;;;;;5049648;28;20565;-50
2022/03/11 02:40:57;;;;;;;22.02;12.07;;;2.60;94.50;;;;;;5051298;28;20082;-47
2022/03/11 02:43:24;;;;;;;24.05;13.10;;;2.50;94.50;;;;;;5051326;28;20445;-48
2022/03/11 02:45:50;;;;;;;23.25;13.48;;;2.70;94.70;;;;;;5049935;28;20045;-47
2022/03/11 02:48:16;;;;;;;23.65;13.35;;;3.60;94.90;;;;;;5050849;28;20102;-49
2022/03/11 02:50:42;;;;;;;23.23;13.18;;;2.60;94.90;;;;;;5050615;28;20045;-47
2022/03/11 02:53:08;;;;;;;22.17;12.80;;;2.60;95.00;;;;;;5050963;28;20056;-48
2022/03/11 02:55:34;;;;;;;22.08;13.23;;;2.50;94.90;;;;;;5051328;28;20045;-48
2022/03/11 02:57:59;;;;;;;21.35;12.32;;;2.50;95.10;;;;;;5050904;28;20029;-49
2022/03/11 03:00:25;;;;;;;19.63;11.77;;;2.50;95.20;;;;;;5051216;28;20120;-48
2022/03/11 03:02:52;;;;;;;22.42;13.55;;;2.20;95.10;;;;;;5051071;28;20049;-48
2022/03/11 03:05:17;;;;;;;21.95;13.95;;;2.30;95.70;;;;;;5051482;28;20051;-46
2022/03/11 03:07:44;;;;;;;24.20;13.35;;;2.50;95.40;;;;;;5050824;28;20068;-47
2022/03/11 03:10:12;;;;;;;24.38;14.05;;;2.50;95.50;;;;;;5050314;28;20033;-46
2022/03/11 03:12:39;;;;;;;22.60;14.00;;;2.30;95.50;;;;;;5050101;28;20053;-47
2022/03/11 03:15:06;;;;;;;24.20;13.55;;;2.80;95.60;;;;;;5049808;28;20041;-45
2022/03/11 03:17:31;;;;;;;23.50;13.50;;;2.40;95.60;;;;;;5050886;28;20036;-50
2022/03/11 03:19:57;;;;;;;22.73;13.20;;;2.40;95.70;;;;;;5050663;28;20041;-48
2022/03/11 03:22:23;;;;;;;26.33;14.75;;;2.40;95.80;;;;;;5050770;28;20084;-46
2022/03/11 03:24:49;;;;;;;26.23;14.50;;;2.40;96.00;;;;;;5048896;28;20461;-47
2022/03/11 03:27:15;;;;;;;21.80;12.82;;;2.20;95.90;;;;;;5050926;28;20064;-49
2022/03/11 03:29:41;;;;;;;24.40;14.10;;;2.30;96.00;;;;;;5049192;28;20410;-51
2022/03/11 03:32:08;;;;;;;25.20;13.90;;;2.10;95.90;;;;;;5050147;28;20036;-47
2022/03/11 03:34:35;;;;;;;24.75;15.68;;;2.20;96.50;;;;;;5050651;28;20041;-46
2022/03/11 03:37:04;;;;;;;26.40;15.30;;;2.10;96.50;;;;;;5049808;28;20604;-47
2022/03/11 03:39:30;;;;;;;25.58;14.30;;;2.20;96.60;;;;;;5050252;28;20043;-50
2022/03/11 03:41:56;;;;;;;24.02;15.18;;;2.30;97.30;;;;;;5049748;28;20379;-47
2022/03/11 03:44:22;;;;;;;26.70;14.95;;;2.20;97.50;;;;;;5050329;28;20049;-51
2022/03/11 03:46:49;;;;;;;24.55;14.88;;;2.10;97.40;;;;;;5049341;28;20033;-51
2022/03/11 03:49:15;;;;;;;25.75;15.93;;;2.10;97.00;;;;;;5050387;28;20050;-49
2022/03/11 03:51:42;;;;;;;29.58;16.90;;;1.90;97.00;;;;;;5049401;28;20506;-49
2022/03/11 03:54:11;;;;;;;27.33;16.25;;;1.90;97.40;;;;;;5050182;28;20133;-47
2022/03/11 03:56:40;;;;;;;27.67;14.43;;;1.90;97.30;;;;;;5049696;28;20497;-47
2022/03/11 03:59:07;;;;;;;27.63;16.17;;;1.90;97.50;;;;;;5049726;28;20045;-48
2022/03/11 04:01:34;;;;;;;28.02;16.15;;;1.90;97.50;;;;;;5049911;28;20044;-47
2022/03/11 04:04:00;;;;;;;26.98;16.27;;;1.90;97.90;;;;;;5049526;28;20045;-47
2022/03/11 04:06:27;;;;;;;29.65;15.38;;;1.70;97.80;;;;;;5049432;28;20041;-46
2022/03/11 04:08:56;;;;;;;27.52;14.77;;;1.80;97.90;;;;;;5048676;28;20562;-47
2022/03/11 04:11:26;;;;;;;28.92;17.63;;;1.70;98.00;;;;;;5049065;28;20076;-47
2022/03/11 04:13:53;;;;;;;30.80;15.68;;;1.70;98.10;;;;;;5048408;28;20503;-47
2022/03/11 04:16:20;;;;;;;26.73;17.23;;;1.70;98.10;;;;;;5049734;28;20144;-51
2022/03/11 04:18:46;;;;;;;28.48;16.20;;;1.60;98.30;;;;;;5049870;28;20052;-47
2022/03/11 04:21:13;;;;;;;27.30;16.63;;;1.70;98.20;;;;;;5048929;28;20048;-46
2022/03/11 04:23:43;;;;;;;30.98;16.30;;;1.50;98.20;;;;;;5049559;28;20114;-47
2022/03/11 04:26:09;;;;;;;28.60;15.88;;;1.70;98.30;;;;;;5049100;28;20045;-47
2022/03/11 04:28:35;;;;;;;28.65;16.00;;;1.70;98.30;;;;;;5049024;28;20483;-49
2022/03/11 04:31:09;;;;;;;29.60;15.27;;;1.60;98.50;;;;;;5049242;28;20060;-48
2022/03/11 04:33:36;;;;;;;31.80;15.80;;;1.60;98.50;;;;;;5049348;28;20526;-50
2022/03/11 04:36:03;;;;;;;28.50;16.65;;;1.50;98.40;;;;;;5048938;28;20037;-48
2022/03/11 04:38:30;;;;;;;29.40;17.45;;;1.50;98.60;;;;;;5049056;28;20040;-48
2022/03/11 04:40:56;;;;;;;28.75;16.42;;;1.50;98.70;;;;;;5048871;28;20146;-48
2022/03/11 04:43:22;;;;;;;26.83;17.58;;;1.50;98.80;;;;;;5048993;28;20155;-46
2022/03/11 04:45:47;;;;;;;28.55;15.93;;;1.50;98.90;;;;;;5049545;28;20119;-48
2022/03/11 04:48:13;;;;;;;29.60;16.40;;;1.40;99.10;;;;;;5049242;28;20052;-46
2022/03/11 04:50:40;;;;;;;26.90;16.23;;;1.50;99.00;;;;;;5048956;28;20123;-46
2022/03/11 04:53:05;;;;;;;27.63;16.38;;;1.40;99.10;;;;;;5049564;28;20044;-45
2022/03/11 04:55:31;;;;;;;25.92;13.45;;;1.60;99.20;;;;;;5049478;28;20060;-46
2022/03/11 04:57:57;;;;;;;30.98;16.63;;;1.60;99.20;;;;;;5050923;28;20340;-47
2022/03/11 05:00:23;;;;;;;29.55;16.83;;;1.60;99.10;;;;;;5053201;28;20052;-47
2022/03/11 05:02:49;;;;;;;25.42;15.80;;;1.50;99.10;;;;;;5052937;28;20460;-45
2022/03/11 05:05:15;;;;;;;24.92;14.38;;;1.50;99.30;;;;;;5053119;28;20044;-49
2022/03/11 05:07:42;;;;;;;30.85;16.85;;;1.50;99.20;;;;;;5052589;28;20395;-46
2022/03/11 05:10:10;;;;;;;25.55;14.73;;;1.50;99.20;;;;;;5053143;28;20076;-46
2022/03/11 05:12:37;;;;;;;28.55;15.93;;;1.50;99.30;;;;;;5052670;28;20060;-48
2022/03/11 05:15:04;;;;;;;25.92;15.98;;;1.40;99.20;;;;;;5050871;28;20049;-52
2022/03/11 05:17:30;;;;;;;25.83;15.48;;;1.50;99.50;;;;;;5049891;28;20040;-48
2022/03/11 05:19:56;;;;;;;28.00;16.08;;;1.50;99.40;;;;;;5051424;28;20847;-45
2022/03/11 05:22:22;;;;;;;28.83;16.40;;;1.40;99.40;;;;;;5052368;28;20077;-51
2022/03/11 05:24:48;;;;;;;29.40;17.48;;;1.20;99.50;;;;;;5052762;28;20044;-46
2022/03/11 05:27:14;;;;;;;26.17;14.80;;;1.20;99.60;;;;;;5052676;28;20094;-50
2022/03/11 05:29:40;;;;;;;32.10;17.52;;;1.30;99.50;;;;;;5053003;28;20037;-52
2022/03/11 05:32:07;;;;;;;25.88;16.08;;;1.20;99.60;;;;;;5052394;28;20037;-53
2022/03/11 05:34:40;;;;;;;28.70;15.65;;;1.30;99.60;;;;;;5054167;28;20179;-50
2022/03/11 05:37:06;;;;;;;27.00;14.40;;;1.30;99.70;;;;;;5052751;28;20481;-55
2022/03/11 05:39:44;;;;;;;33.00;15.27;;;1.20;99.60;;;;;;5052848;28;20386;-55
2022/03/11 05:42:10;;;;;;;30.20;15.63;;;1.80;99.90;;;;;;5054889;28;20111;-51
2022/03/11 05:44:45;;;;;;;28.20;16.05;;;1.20;99.70;;;;;;5054659;28;20155;-56
2022/03/11 05:47:10;;;;;;;31.02;16.00;;;3.20;99.90;;;;;;5054549;28;20116;-55
2022/03/11 05:49:36;;;;;;;30.70;15.38;;;1.20;99.80;;;;;;5051931;28;20127;-51
2022/03/11 05:52:07;;;;;;;27.48;15.93;;;1.30;99.80;;;;;;5053161;28;20044;-52
2022/03/11 05:54:34;;;;;;;28.83;15.00;;;1.10;99.80;;;;;;5054358;28;20715;-54
2022/03/11 05:57:01;;;;;;;27.77;16.15;;;1.20;99.70;;;;;;5052680;28;20479;-53
2022/03/11 05:59:29;;;;;;;28.35;15.27;;;1.20;99.70;;;;;;5053578;28;20036;-52
2022/03/11 06:01:55;;;;;;;26.15;15.50;;;1.20;99.70;;;;;;5052432;28;20059;-44
2022/03/11 06:04:21;;;;;;;32.47;16.45;;;1.20;99.70;;;;;;5052212;28;20059;-43
2022/03/11 06:06:47;;;;;;;27.75;16.10;;;1.20;99.80;;;;;;5052361;28;20446;-43
2022/03/11 06:09:13;;;;;;;27.52;15.82;;;1.30;99.70;;;;;;5051686;28;20142;-43
2022/03/11 06:11:39;;;;;;;29.85;14.98;;;1.60;99.50;;;;;;5051343;28;20047;-43
2022/03/11 06:14:06;;;;;;;26.67;14.60;;;2.00;99.10;;;;;;5051672;28;20040;-46
2022/03/11 06:16:32;;;;;;;29.42;15.60;;;2.80;98.50;;;;;;5051406;28;20500;-43
2022/03/11 06:18:57;;;;;;;27.48;15.77;;;2.70;97.70;;;;;;5051785;28;20098;-45
2022/03/11 06:21:23;;;;;;;27.33;15.85;;;3.80;97.20;;;;;;5051286;28;20127;-44
2022/03/11 06:23:49;;;;;;;25.10;15.43;;;3.40;96.50;;;;;;5051725;28;20036;-44
2022/03/11 06:26:14;;;;;;;26.27;14.13;;;3.80;95.50;;;;;;5051512;28;20514;-44
2022/03/11 06:28:40;;;;;;;26.63;14.88;;;4.00;94.50;;;;;;5051669;28;20099;-44
2022/03/11 06:31:08;;;;;;;27.23;15.32;;;4.30;94.10;;;;;;5051678;28;20036;-43
2022/03/11 06:33:34;;;;;;;27.13;15.70;;;4.10;93.60;;;;;;5051571;28;20455;-43
2022/03/11 06:35:59;;;;;;;28.98;15.90;;;3.70;93.70;;;;;;5051559;28;20088;-43
2022/03/11 06:38:25;;;;;;;24.33;14.70;;;3.30;93.80;;;;;;5051318;28;20040;-44
2022/03/11 06:40:51;;;;;;;24.85;13.60;;;3.10;94.10;;;;;;5051352;28;20131;-42
2022/03/11 06:43:18;;;;;;;23.50;14.52;;;2.90;94.30;;;;;;5050797;28;20053;-45
2022/03/11 06:45:43;;;;;;;31.20;15.90;;;4.10;94.90;;;;;;5051123;28;20091;-43
2022/03/11 06:48:09;;;;;;;24.50;14.63;;;2.50;94.70;;;;;;5051048;28;20076;-43
2022/03/11 06:50:35;;;;;;;23.45;13.57;;;2.70;94.90;;;;;;5050851;28;20051;-43
2022/03/11 06:53:00;;;;;;;26.30;16.02;;;3.00;94.80;;;;;;5050545;28;20045;-43
2022/03/11 06:55:26;;;;;;;24.33;14.75;;;2.90;94.60;;;;;;5050058;28;20469;-42
2022/03/11 06:57:53;;;;;;;28.52;15.95;;;3.00;94.50;;;;;;5050011;28;20045;-45
2022/03/11 07:00:18;;;;;;;32.70;15.60;;;2.70;94.40;;;;;;5050114;28;20449;-43
2022/03/11 07:02:45;;;;;;;24.60;14.95;;;2.90;94.30;;;;;;5051008;28;20037;-42
2022/03/11 07:05:11;;;;;;;27.17;14.95;;;2.80;94.40;;;;;;5050094;28;20041;-43
2022/03/11 07:07:37;;;;;;;27.90;14.48;;;2.90;94.60;;;;;;5050362;28;20592;-42
2022/03/11 07:10:04;;;;;;;25.98;14.57;;;3.00;94.40;;;;;;5051073;28;20043;-45
2022/03/11 07:12:31;;;;;;;27.77;14.50;;;3.30;94.30;;;;;;5050668;28;20049;-46
2022/03/11 07:14:59;;;;;;;25.67;15.00;;;3.90;94.30;;;;;;5050815;28;20445;-44
2022/03/11 07:17:25;;;;;;;25.60;15.45;;;3.40;94.00;;;;;;5050429;28;20088;-43
2022/03/11 07:19:51;;;;;;;24.20;13.85;;;3.80;94.00;;;;;;5050637;28;20076;-43
2022/03/11 07:22:16;;;;;;;25.33;15.00;;;5.30;94.10;;;;;;5048516;28;20402;-43
2022/03/11 07:24:44;;;;;;;25.42;13.90;;;3.60;93.60;;;;;;5049503;28;20041;-43
2022/03/11 07:27:10;;;;;;;27.27;13.70;;;4.20;93.60;;;;;;5048666;28;20411;-43
2022/03/11 07:29:36;;;;;;;27.05;15.55;;;4.90;93.00;;;;;;5049431;28;20040;-44
2022/03/11 07:32:02;;;;;;;26.40;14.48;;;5.40;91.80;;;;;;5049817;28;20093;-45
2022/03/11 07:34:28;;;;;;;29.40;16.92;;;5.90;90.70;;;;;;5050151;28;20071;-43
2022/03/11 07:36:54;;;;;;;23.83;14.50;;;5.30;90.30;;;;;;5048763;28;20073;-45
2022/03/11 07:39:20;;;;;;;23.63;14.48;;;5.50;90.60;;;;;;5049830;28;20053;-45
2022/03/11 07:41:45;;;;;;;25.77;14.07;;;4.90;90.70;;;;;;5049559;28;20056;-42
2022/03/11 07:44:12;;;;;;;25.40;15.02;;;4.60;90.90;;;;;;5049418;28;20052;-44
2022/03/11 07:46:39;;;;;;;25.17;13.80;;;4.70;91.00;;;;;;5048844;28;20049;-43
2022/03/11 07:49:04;;;;;;;23.67;14.35;;;4.80;91.00;;;;;;5048863;28;20070;-44
2022/03/11 07:51:30;;;;;;;27.60;14.50;;;5.20;91.10;;;;;;5049417;28;20124;-48
2022/03/11 07:53:56;;;;;;;24.30;14.07;;;4.70;91.10;;;;;;5049799;28;20041;-44
2022/03/11 07:56:23;;;;;;;25.60;14.70;;;4.40;91.00;;;;;;5049690;28;20043;-44
2022/03/11 07:58:48;;;;;;;25.88;14.63;;;4.50;91.20;;;;;;5049768;28;20116;-43
2022/03/11 08:01:14;;;;;;;22.98;15.07;;;4.60;91.20;;;;;;5050081;28;20166;-43
2022/03/11 08:03:41;;;;;;;24.23;14.32;;;4.90;91.20;;;;;;5049881;28;20044;-43
2022/03/11 08:06:08;;;;;;;24.95;15.18;;;6.80;91.10;;;;;;5049837;28;20052;-43
2022/03/11 08:08:35;;;;;;;24.67;14.88;;;6.10;90.10;;;;;;5049336;28;20036;-43
2022/03/11 08:11:01;;;;;;;26.33;16.00;;;6.30;88.70;;;;;;5049028;28;20047;-44
2022/03/11 08:13:27;;;;;;;24.67;14.90;;;7.40;88.40;;;;;;5049626;28;20266;-44
2022/03/11 08:15:54;;;;;;;26.85;16.08;;;6.40;87.70;;;;;;5050055;28;20379;-43
2022/03/11 08:18:20;;;;;;;21.83;14.00;;;7.10;86.90;;;;;;5050100;28;20029;-45
2022/03/11 08:20:47;;;;;;;22.77;13.45;;;6.60;84.60;;;;;;5049833;28;20072;-46
2022/03/11 08:23:12;;;;;;;24.52;14.52;;;7.00;86.00;;;;;;5049572;28;20044;-47
2022/03/11 08:25:38;;;;;;;25.52;13.68;;;7.10;84.40;;;;;;5048907;28;20045;-43
2022/03/11 08:28:10;;;;;;;22.92;14.88;;;7.30;84.00;;;;;;5048433;28;20058;-45
2022/03/11 08:30:37;;;;;;;23.70;14.07;;;7.60;83.30;;;;;;5049271;28;20049;-45
2022/03/11 08:33:03;;;;;;;26.73;14.38;;;8.20;81.30;;;;;;5048544;28;20466;-46
2022/03/11 08:35:28;;;;;;;28.15;15.30;;;8.30;79.10;;;;;;5047596;28;20112;-44
2022/03/11 08:37:54;;;;;;;19.48;13.20;;;9.10;79.80;;;;;;5049382;28;20552;-46
2022/03/11 08:40:23;;;;;;;23.83;14.63;;;9.20;78.00;;;;;;5047838;28;20033;-45
2022/03/11 08:42:51;;;;;;;24.58;14.88;;;10.20;76.30;;;;;;5068234;28;20423;-46
2022/03/11 08:45:20;;;;;;;28.25;14.40;;;11.10;73.20;;;;;;5068854;28;20161;-44
2022/03/11 08:47:45;;;;;;;23.27;14.82;;;11.90;70.30;;;;;;5067929;28;20073;-43
2022/03/11 08:50:11;;;;;;;20.95;12.98;;;12.30;66.10;;;;;;5068553;28;20122;-44
2022/03/11 08:52:37;;;;;;;18.70;12.20;;;12.70;65.40;;;;;;5067962;28;20558;-44
2022/03/11 08:55:03;;;;;;;22.20;14.63;;;12.90;65.00;;;;;;5069115;28;20052;-45
2022/03/11 08:57:29;;;;;;;23.58;14.85;;;13.20;63.70;;;;;;5068919;28;20094;-46
2022/03/11 08:59:55;;;;;;;19.80;13.63;;;13.50;62.80;;;;;;5068649;28;20071;-45
2022/03/11 09:02:22;;;;;;;23.52;14.77;;;13.10;62.50;;;;;;5068764;28;20048;-46
2022/03/11 09:04:48;;;;;;;20.95;13.07;;;12.50;64.20;;;;;;5068554;28;20079;-44
2022/03/11 09:07:14;;;;;;;21.75;13.70;;;11.80;65.20;;;;;;5068541;28;20040;-45
2022/03/11 09:09:40;;;;;;;18.08;12.60;;;11.40;66.60;;;;;;5067758;28;20041;-45
2022/03/11 09:12:06;;;;;;;20.88;14.20;;;11.00;68.30;;;;;;5068233;28;20044;-44
2022/03/11 09:14:32;;;;;;;23.05;14.40;;;10.80;69.50;;;;;;5067529;28;20055;-46
2022/03/11 09:16:58;;;;;;;22.75;14.90;;;11.30;69.50;;;;;;5068066;28;20053;-44
2022/03/11 09:19:24;;;;;;;17.08;11.50;;;12.40;67.30;;;;;;5068337;28;20116;-45
2022/03/11 09:21:50;;;;;;;21.63;14.85;;;13.30;64.60;;;;;;5068403;28;20127;-46
2022/03/11 09:24:16;;;;;;;19.60;13.82;;;13.70;63.30;;;;;;5068666;28;20091;-46
2022/03/11 09:26:45;;;;;;;22.77;13.93;;;13.80;62.50;;;;;;5068321;28;20040;-47
2022/03/11 09:29:11;;;;;;;20.88;14.88;;;14.20;61.10;;;;;;5068910;28;20032;-47
2022/03/11 09:31:37;;;;;;;20.15;14.88;;;14.20;59.70;;;;;;5068556;28;20123;-45
2022/03/11 09:34:03;;;;;;;25.10;14.65;;;14.00;60.10;;;;;;5068973;28;20537;-45
2022/03/11 09:36:28;;;;;;;23.60;14.35;;;13.60;61.00;;;;;;5069017;28;20098;-45
2022/03/11 09:38:54;;;;;;;20.52;14.45;;;13.70;61.00;;;;;;5068564;28;20547;-45
2022/03/11 09:41:20;;;;;;;24.65;14.10;;;14.30;59.70;;;;;;5067938;28;20087;-45
2022/03/11 09:43:46;;;;;;;20.52;13.73;;;14.60;58.70;;;;;;5067321;28;20045;-45
2022/03/11 09:46:14;;;;;;;21.10;15.13;;;14.60;58.50;;;;;;5072315;28;20093;-46
2022/03/11 09:48:41;;;;;;;22.27;13.80;;;14.40;57.60;;;;;;5072272;28;20068;-45
2022/03/11 09:51:11;;;;;;;20.40;14.15;;;14.40;57.80;;;;;;5072412;28;20094;-46
2022/03/11 09:53:37;;;;;;;23.35;14.32;;;12.70;55.80;;;;;;5072332;28;20075;-45
2022/03/11 09:56:04;;;;;;;21.08;13.65;;;14.90;56.30;;;;;;5072325;28;20142;-45
2022/03/11 09:58:29;;;;;;;20.25;13.38;;;15.00;55.80;;;;;;5071851;28;20588;-46
2022/03/11 10:00:55;;;;;;;19.90;12.52;;;14.70;55.40;;;;;;5071787;28;20052;-44
2022/03/11 10:03:22;;;;;;;17.77;13.15;;;14.60;55.00;;;;;;5071964;28;20443;-47
2022/03/11 10:05:52;;;;;;;17.70;12.40;;;14.60;54.80;;;;;;5071932;28;20072;-46
2022/03/11 10:08:30;;;;;;;20.75;14.48;;;14.40;55.30;;;;;;5072613;28;20043;-46
2022/03/11 10:11:24;;;;;;;19.25;14.38;;;13.30;54.90;;;;;;5071820;28;20447;-48
2022/03/11 10:13:54;;;;;;;19.30;13.23;;;12.50;57.80;;;;;;5071768;28;20040;-46
2022/03/11 10:16:25;;;;;;;17.20;13.25;;;12.20;59.60;;;;;;5072222;28;20056;-46
2022/03/11 10:19:05;;;;;;;19.10;13.45;;;12.40;60.00;;;;;;5071470;28;20052;-46
2022/03/11 10:21:36;;;;;;;20.70;14.48;;;12.60;59.30;;;;;;5070918;28;20076;-44
2022/03/11 10:24:05;;;;;;;17.17;12.98;;;13.20;59.10;;;;;;5070734;28;20036;-45
2022/03/11 10:26:35;;;;;;;22.15;13.30;;;13.50;58.20;;;;;;5070965;28;20485;-47
2022/03/11 10:29:03;;;;;;;18.58;13.70;;;13.80;57.40;;;;;;5070556;28;20319;-45
2022/03/11 10:31:30;;;;;;;19.40;13.57;;;13.50;56.40;;;;;;5071003;28;20055;-46
2022/03/11 10:34:15;;;;;;;24.65;15.15;;;13.50;56.20;;;;;;5071234;28;20047;-46
2022/03/11 10:36:47;;;;;;;17.70;13.32;;;13.90;55.40;;;;;;5071293;28;20385;-47
2022/03/11 10:39:15;;;;;;;19.08;12.93;;;14.20;55.10;;;;;;5071248;28;20174;-46
2022/03/11 10:41:41;;;;;;;21.80;14.13;;;14.50;54.40;;;;;;5070309;28;20105;-46
2022/03/11 10:44:09;;;;;;;19.08;13.48;;;14.90;53.30;;;;;;5070488;28;20048;-45
2022/03/11 10:46:35;;;;;;;19.65;12.50;;;15.20;52.80;;;;;;5070213;28;20052;-45
2022/03/11 10:49:01;;;;;;;20.55;13.18;;;15.30;51.90;;;;;;5070687;28;20390;-46
2022/03/11 10:51:30;;;;;;;19.65;12.77;;;15.30;51.80;;;;;;5071102;28;20040;-47
2022/03/11 10:53:57;;;;;;;20.08;12.77;;;15.30;51.10;;;;;;5071029;28;20036;-45
2022/03/11 10:56:26;;;;;;;20.30;12.25;;;15.20;51.50;;;;;;5070983;28;20040;-46
2022/03/11 10:58:52;;;;;;;19.45;13.93;;;15.00;52.00;;;;;;5070813;28;20052;-45
2022/03/11 11:01:55;;;;;;;24.23;13.98;;;15.00;51.30;;;;;;5071087;28;20040;-45
2022/03/11 11:04:21;;;;;;;20.50;13.73;;;15.00;51.50;;;;;;5008223;28;20591;-46
2022/03/11 11:06:47;;;;;;;19.73;12.45;;;14.80;51.20;;;;;;5058042;28;20135;-46
2022/03/11 11:09:17;;;;;;;18.92;11.52;;;14.40;51.30;;;;;;5070724;28;20033;-48
2022/03/11 11:11:43;;;;;;;19.30;12.68;;;13.50;52.00;;;;;;5070586;28;20086;-45
2022/03/11 11:14:10;;;;;;;19.38;13.25;;;12.80;53.60;;;;;;5070668;28;20107;-49
2022/03/11 11:16:41;;;;;;;20.58;12.35;;;11.90;54.70;;;;;;5070499;28;20044;-46
2022/03/11 11:19:12;;;;;;;20.63;12.85;;;11.30;55.80;;;;;;5070391;28;20072;-46
2022/03/11 11:21:44;;;;;;;19.58;13.27;;;10.70;57.60;;;;;;5070808;28;20029;-46
2022/03/11 11:24:21;;;;;;;18.10;12.55;;;10.50;59.80;;;;;;5070665;28;20113;-46
2022/03/11 11:26:57;;;;;;;18.90;11.95;;;9.90;59.90;;;;;;5070201;28;20060;-46
2022/03/11 11:29:29;;;;;;;19.35;12.38;;;9.80;60.60;;;;;;5070329;28;20044;-45
2022/03/11 11:31:55;;;;;;;21.58;12.73;;;9.70;59.60;;;;;;5070372;28;20176;-45
2022/03/11 11:34:25;;;;;;;16.90;10.18;;;9.70;60.50;;;;;;5070302;28;20510;-45
2022/03/11 11:36:51;;;;;;;23.15;12.18;;;9.60;61.00;;;;;;5070225;28;20059;-45
2022/03/11 11:39:17;;;;;;;18.27;12.25;;;9.60;60.80;;;;;;5070187;28;20040;-46
2022/03/11 11:41:54;;;;;;;19.58;12.63;;;9.60;61.20;;;;;;5069118;28;20048;-45
2022/03/11 11:44:31;;;;;;;19.38;12.38;;;9.70;60.80;;;;;;5069593;28;20059;-44
2022/03/11 11:47:21;;;;;;;17.58;10.73;;;9.60;61.50;;;;;;5069279;28;20089;-44
2022/03/11 11:49:48;;;;;;;19.10;11.48;;;9.60;61.00;;;;;;5069905;28;20040;-45
2022/03/11 11:52:35;;;;;;;14.88;10.82;;;9.50;60.60;;;;;;5070011;28;20083;-44
2022/03/11 11:55:17;;;;;;;19.67;12.80;;;9.50;59.90;;;;;;5069152;28;20048;-45
2022/03/11 11:57:46;;;;;;;16.75;11.65;;;9.60;60.50;;;;;;5069528;28;20110;-47
2022/03/11 12:00:26;;;;;;;17.48;11.13;;;9.60;60.70;;;;;;5069432;28;20491;-46
2022/03/11 12:02:53;;;;;;;15.93;10.25;;;9.60;60.20;;;;;;5069396;28;20524;-44
2022/03/11 12:05:37;;;;;;;19.33;12.75;;;9.70;60.00;;;;;;5070000;28;20110;-49
2022/03/11 12:08:04;;;;;;;16.38;10.75;;;9.70;59.70;;;;;;5069204;28;20090;-47
2022/03/11 12:10:30;;;;;;;15.88;9.85;;;9.70;60.20;;;;;;5069703;28;20062;-46
2022/03/11 12:12:58;;;;;;;18.63;11.20;;;10.00;60.10;;;;;;5069724;28;20726;-44
2022/03/11 12:15:24;;;;;;;19.60;11.27;;;9.80;59.70;;;;;;5050965;28;20394;-44
2022/03/11 12:17:56;;;;;;;18.30;13.25;;;10.20;61.50;;;;;;5069411;28;20045;-46
2022/03/11 12:20:36;;;;;;;17.52;10.38;;;10.00;61.10;;;;;;5069777;28;20045;-48
2022/03/11 12:23:06;;;;;;;17.00;10.90;;;9.90;60.60;;;;;;5050944;28;20074;-46
2022/03/11 12:25:48;;;;;;;17.48;11.18;;;10.20;60.50;;;;;;5069594;28;20121;-47
2022/03/11 12:28:32;;;;;;;;;;;10.10;60.40;;;;;;5069761;28;20430;-46
2022/03/11 12:31:11;;;;;;;14.40;10.05;;;10.20;60.20;;;;;;5069565;28;19996;-45
2022/03/11 12:33:39;;;;;;;17.10;10.10;;;10.70;60.60;;;;;;5069328;28;20048;-48
2022/03/11 12:36:07;;;;;;;15.05;10.00;;;10.30;60.30;;;;;;5069349;28;20047;-46
2022/03/11 12:38:35;;;;;;;15.30;9.82;;;10.40;59.00;;;;;;5069586;28;20044;-44